createdAt,value
2023-03-12T00:01:19.614Z,98170.22
2023-03-12T00:03:46.894Z,98169.16
2023-03-12T00:06:13.874Z,98173.38
2023-03-12T00:08:40.720Z,98168.94
2023-03-12T00:11:15.210Z,98160.88
2023-03-12T00:13:41.847Z,98171.09
2023-03-12T00:16:13.701Z,98163.47
2023-03-12T00:18:43.204Z,98168.84
2023-03-12T00:21:10.571Z,98173.00
2023-03-12T00:23:37.160Z,98169.66
2023-03-12T00:26:10.773Z,98168.59
2023-03-12T00:28:38.506Z,98171.81
2023-03-12T00:31:17.087Z,98178.50
2023-03-12T00:33:44.094Z,98173.09
2023-03-12T00:36:10.940Z,98173.84
2023-03-12T00:38:37.932Z,98170.91
2023-03-12T00:41:07.086Z,98181.13
2023-03-12T00:43:33.953Z,98176.59
2023-03-12T00:46:00.702Z,98167.50
2023-03-12T00:48:27.221Z,98161.44
2023-03-12T00:50:53.832Z,98166.50
2023-03-12T00:53:20.850Z,98165.31
2023-03-12T00:55:47.432Z,98161.38
2023-03-12T00:58:16.682Z,98147.63
2023-03-12T01:00:43.177Z,98152.88
2023-03-12T01:03:09.620Z,98153.88
2023-03-12T01:05:37.820Z,98152.59
2023-03-12T01:08:05.340Z,98154.63
2023-03-12T01:10:33.786Z,98149.56
2023-03-12T01:13:00.389Z,98153.88
2023-03-12T01:15:27.285Z,98158.25
2023-03-12T01:17:53.746Z,98153.72
2023-03-12T01:20:20.303Z,98158.69
2023-03-12T01:22:46.731Z,98153.63
2023-03-12T01:25:13.297Z,98153.13
2023-03-12T01:27:39.920Z,98151.44
2023-03-12T01:30:06.997Z,98158.34
2023-03-12T01:32:33.783Z,98154.88
2023-03-12T01:35:00.571Z,98152.28
2023-03-12T01:37:28.285Z,98151.19
2023-03-12T01:39:54.766Z,98152.97
2023-03-12T01:42:21.244Z,98150.16
2023-03-12T01:44:55.281Z,98148.34
2023-03-12T01:47:21.937Z,98141.50
2023-03-12T01:49:50.017Z,98143.94
2023-03-12T01:52:21.909Z,98135.34
2023-03-12T01:54:57.434Z,98143.00
2023-03-12T01:57:38.027Z,98136.59
2023-03-12T02:00:11.859Z,98125.31
2023-03-12T02:02:40.034Z,98124.47
2023-03-12T02:05:13.408Z,98119.59
2023-03-12T02:07:39.910Z,98125.41
2023-03-12T02:10:06.595Z,98125.66
2023-03-12T02:12:33.017Z,98118.06
2023-03-12T02:14:59.884Z,98120.34
2023-03-12T02:17:26.436Z,98113.69
2023-03-12T02:20:19.735Z,98124.88
2023-03-12T02:23:09.117Z,98123.00
2023-03-12T02:25:47.650Z,98124.72
2023-03-12T02:28:16.389Z,98125.06
2023-03-12T02:30:46.707Z,98111.91
2023-03-12T02:33:15.300Z,98116.63
2023-03-12T02:35:42.814Z,98123.38
2023-03-12T02:38:47.249Z,98117.81
2023-03-12T02:41:24.762Z,98112.59
2023-03-12T02:44:02.736Z,98118.31
2023-03-12T02:46:33.573Z,98106.47
2023-03-12T02:49:02.160Z,98112.63
2023-03-12T02:51:28.597Z,98105.28
2023-03-12T02:53:55.096Z,98093.84
2023-03-12T02:56:26.686Z,98100.84
2023-03-12T02:58:53.817Z,98097.88
2023-03-12T03:01:20.972Z,98091.25
2023-03-12T03:03:48.087Z,98093.97
2023-03-12T03:06:14.865Z,98087.91
2023-03-12T03:08:41.424Z,98090.44
2023-03-12T03:11:07.915Z,98084.94
2023-03-12T03:13:34.968Z,98083.91
2023-03-12T03:16:01.989Z,98078.94
2023-03-12T03:18:29.967Z,98074.06
2023-03-12T03:21:02.143Z,98074.59
2023-03-12T03:23:29.172Z,98064.25
2023-03-12T03:25:55.829Z,98074.69
2023-03-12T03:28:24.562Z,98070.22
2023-03-12T03:30:58.197Z,98074.41
2023-03-12T03:33:25.017Z,98061.53
2023-03-12T03:35:51.509Z,98063.84
2023-03-12T03:38:18.070Z,98080.84
2023-03-12T03:40:44.466Z,98075.19
2023-03-12T03:43:10.928Z,98076.06
2023-03-12T03:45:37.485Z,98077.38
2023-03-12T03:48:04.194Z,98078.22
2023-03-12T03:50:30.826Z,98074.25
2023-03-12T03:52:57.278Z,98076.09
2023-03-12T03:55:23.807Z,98071.91
2023-03-12T03:57:53.003Z,98058.56
2023-03-12T04:00:19.710Z,98059.00
2023-03-12T04:02:46.145Z,98057.88
2023-03-12T04:05:12.595Z,98061.31
2023-03-12T04:07:39.035Z,98065.94
2023-03-12T04:10:06.019Z,98065.38
2023-03-12T04:12:32.503Z,98079.50
2023-03-12T04:14:58.967Z,98080.53
2023-03-12T04:17:25.480Z,98072.97
2023-03-12T04:19:51.935Z,98073.22
2023-03-12T04:22:18.316Z,98072.50
2023-03-12T04:24:44.822Z,98068.00
2023-03-12T04:27:11.302Z,98073.41
2023-03-12T04:29:39.239Z,98078.31
2023-03-12T04:32:06.442Z,98084.19
2023-03-12T04:34:32.877Z,98078.41
2023-03-12T04:37:01.240Z,98076.59
2023-03-12T04:39:27.713Z,98073.53
2023-03-12T04:41:54.171Z,98072.59
2023-03-12T04:44:20.643Z,98069.59
2023-03-12T04:46:47.248Z,98069.84
2023-03-12T04:49:13.692Z,98075.84
2023-03-12T04:51:40.176Z,98070.06
2023-03-12T04:54:06.664Z,98065.34
2023-03-12T04:56:33.244Z,98055.41
2023-03-12T04:58:59.776Z,98050.63
2023-03-12T05:01:29.191Z,98048.69
2023-03-12T05:03:55.988Z,98035.72
2023-03-12T05:06:23.576Z,98022.31
2023-03-12T05:08:50.405Z,98029.06
2023-03-12T05:11:17.630Z,98035.44
2023-03-12T05:13:44.379Z,98032.16
2023-03-12T05:16:12.087Z,98036.22
2023-03-12T05:18:39.017Z,98037.03
2023-03-12T05:21:09.301Z,98030.44
2023-03-12T05:23:36.684Z,98035.72
2023-03-12T05:26:03.172Z,98024.44
2023-03-12T05:28:29.642Z,98016.84
2023-03-12T05:30:59.906Z,98019.75
2023-03-12T05:33:28.213Z,98017.28
2023-03-12T05:35:54.792Z,98018.97
2023-03-12T05:38:21.260Z,98014.66
2023-03-12T05:40:53.256Z,98003.78
2023-03-12T05:43:19.800Z,97999.72
2023-03-12T05:45:46.596Z,98003.78
2023-03-12T05:48:13.236Z,98007.38
2023-03-12T05:50:39.684Z,98002.00
2023-03-12T05:53:06.188Z,98002.13
2023-03-12T05:55:39.572Z,98003.19
2023-03-12T05:58:07.733Z,97999.63
2023-03-12T06:00:37.930Z,98004.66
2023-03-12T06:03:05.495Z,98006.78
2023-03-12T06:05:33.353Z,98005.28
2023-03-12T06:08:00.780Z,98001.69
2023-03-12T06:10:28.102Z,98008.97
2023-03-12T06:12:54.777Z,98005.38
2023-03-12T06:15:21.460Z,98017.16
2023-03-12T06:17:48.009Z,97998.44
2023-03-12T06:20:14.625Z,98003.50
2023-03-12T06:22:41.119Z,98001.31
2023-03-12T06:25:07.891Z,98006.41
2023-03-12T06:27:34.322Z,97999.34
2023-03-12T06:30:00.777Z,98000.16
2023-03-12T06:32:27.335Z,98004.72
2023-03-12T06:34:53.863Z,98000.63
2023-03-12T06:37:20.355Z,97994.53
2023-03-12T06:39:47.010Z,97991.16
2023-03-12T06:42:14.776Z,97992.56
2023-03-12T06:44:41.207Z,97987.94
2023-03-12T06:47:07.664Z,98001.09
2023-03-12T06:49:35.678Z,98005.41
2023-03-12T06:52:02.140Z,98000.47
2023-03-12T06:54:28.953Z,97995.66
2023-03-12T06:56:55.501Z,97992.75
2023-03-12T06:59:22.177Z,97985.47
2023-03-12T07:01:49.407Z,97986.75
2023-03-12T07:04:15.996Z,97986.00
2023-03-12T07:06:42.495Z,97979.81
2023-03-12T07:09:09.777Z,97987.09
2023-03-12T07:11:36.228Z,97992.47
2023-03-12T07:14:02.721Z,97986.50
2023-03-12T07:16:30.226Z,97982.69
2023-03-12T07:18:56.802Z,97984.94
2023-03-12T07:21:23.731Z,97981.94
2023-03-12T07:23:51.477Z,97988.72
2023-03-12T07:26:18.161Z,97976.59
2023-03-12T07:28:44.973Z,97979.69
2023-03-12T07:31:11.575Z,97984.31
2023-03-12T07:33:38.945Z,97986.31
2023-03-12T07:36:05.944Z,97978.84
2023-03-12T07:38:32.489Z,97975.47
2023-03-12T07:41:00.375Z,97970.75
2023-03-12T07:43:27.181Z,97982.31
2023-03-12T07:45:53.674Z,97975.63
2023-03-12T07:48:20.331Z,97971.16
2023-03-12T07:50:47.693Z,97965.50
2023-03-12T07:53:14.468Z,97963.84
2023-03-12T07:55:44.675Z,97970.16
2023-03-12T07:58:12.920Z,97962.44
2023-03-12T08:00:39.570Z,97980.22
2023-03-12T08:03:06.248Z,97983.72
2023-03-12T08:05:32.863Z,97970.81
2023-03-12T08:07:59.387Z,97968.19
2023-03-12T08:10:28.587Z,97966.28
2023-03-12T08:12:55.075Z,97967.88
2023-03-12T08:15:21.658Z,97959.78
2023-03-12T08:17:48.293Z,97956.63
2023-03-12T08:20:14.902Z,97961.38
2023-03-12T08:22:41.409Z,97968.47
2023-03-12T08:25:08.672Z,97963.00
2023-03-12T08:27:35.750Z,97963.84
2023-03-12T08:30:02.355Z,97959.63
2023-03-12T08:32:28.948Z,97967.19
2023-03-12T08:34:55.558Z,97968.59
2023-03-12T08:37:23.187Z,97961.88
2023-03-12T08:39:49.650Z,97956.97
2023-03-12T08:42:16.084Z,97951.13
2023-03-12T08:44:42.544Z,97955.13
2023-03-12T08:47:08.987Z,97951.03
2023-03-12T08:49:35.408Z,97943.84
2023-03-12T08:52:02.080Z,97938.44
2023-03-12T08:54:28.513Z,97942.41
2023-03-12T08:56:54.982Z,97933.69
2023-03-12T08:59:22.329Z,97939.75
2023-03-12T09:01:49.160Z,97929.84
2023-03-12T09:04:16.400Z,97926.00
2023-03-12T09:06:43.274Z,97934.25
2023-03-12T09:09:09.826Z,97929.47
2023-03-12T09:11:39.765Z,97942.88
2023-03-12T09:16:52.971Z,97943.34
2023-03-12T09:19:20.582Z,97937.72
2023-03-12T09:21:47.141Z,97943.75
2023-03-12T09:24:13.856Z,97941.22
2023-03-12T09:26:40.656Z,97940.84
2023-03-12T09:29:07.166Z,97944.69
2023-03-12T09:31:34.614Z,97946.69
2023-03-12T09:34:01.116Z,97943.00
2023-03-12T09:36:27.567Z,97940.75
2023-03-12T09:38:54.672Z,97938.22
2023-03-12T09:41:25.691Z,97933.66
2023-03-12T09:44:24.629Z,97933.38
2023-03-12T09:46:54.746Z,97928.25
2023-03-12T09:49:40.910Z,97941.44
2023-03-12T09:52:27.846Z,97943.22
2023-03-12T09:55:07.998Z,97942.88
2023-03-12T09:57:34.743Z,97938.69
2023-03-12T10:00:01.433Z,97940.50
2023-03-12T10:03:03.814Z,97942.03
2023-03-12T10:05:33.138Z,97945.88
2023-03-12T10:08:23.360Z,97949.13
2023-03-12T10:10:58.863Z,97948.28
2023-03-12T10:13:43.813Z,97947.91
2023-03-12T10:16:19.100Z,97949.34
2023-03-12T10:18:56.042Z,97946.00
2023-03-12T10:21:35.484Z,97947.31
2023-03-12T10:24:11.473Z,97953.06
2023-03-12T10:26:45.783Z,97958.47
2023-03-12T10:29:26.708Z,97954.16
2023-03-12T10:32:11.045Z,97957.97
2023-03-12T10:34:46.829Z,97942.38
2023-03-12T10:37:22.603Z,97946.69
2023-03-12T10:39:50.085Z,97944.66
2023-03-12T10:42:22.203Z,97952.22
2023-03-12T10:44:52.331Z,97939.28
2023-03-12T10:47:37.679Z,97930.41
2023-03-12T10:50:21.006Z,97933.53
2023-03-12T10:52:50.699Z,97938.22
2023-03-12T10:55:21.874Z,97933.66
2023-03-12T10:57:49.293Z,97928.25
2023-03-12T11:00:33.945Z,97934.28
2023-03-12T11:03:04.361Z,97936.66
2023-03-12T11:05:37.139Z,97943.50
2023-03-12T11:08:04.769Z,97942.41
2023-03-12T11:10:43.508Z,97939.19
2023-03-12T11:13:41.743Z,97935.19
2023-03-12T11:16:17.262Z,97947.84
2023-03-12T11:19:05.077Z,97933.09
2023-03-12T11:21:36.988Z,97929.75
2023-03-12T11:24:07.693Z,97932.31
2023-03-12T11:26:36.951Z,97932.72
2023-03-12T11:29:39.788Z,97933.94
2023-03-12T11:32:17.636Z,97937.06
2023-03-12T11:34:49.458Z,97918.56
2023-03-12T11:37:35.705Z,97933.22
2023-03-12T11:40:13.480Z,97934.44
2023-03-12T11:43:32.531Z,97918.16
2023-03-12T11:46:25.178Z,97922.75
2023-03-12T11:48:57.591Z,97925.66
2023-03-12T11:51:52.010Z,97922.59
2023-03-12T11:54:52.383Z,97939.28
2023-03-12T11:57:37.704Z,97925.72
2023-03-12T12:00:17.540Z,97915.03
2023-03-12T12:03:09.383Z,97925.44
2023-03-12T12:05:57.401Z,97915.88
2023-03-12T12:08:42.684Z,97911.91
2023-03-12T12:11:31.487Z,97917.47
2023-03-12T12:14:11.815Z,97909.31
2023-03-12T12:16:44.288Z,97897.06
2023-03-12T12:19:18.867Z,97903.53
2023-03-12T12:22:09.581Z,97895.06
2023-03-12T12:24:54.816Z,97890.34
2023-03-12T12:27:28.504Z,97891.03
2023-03-12T12:30:32.746Z,97877.72
2023-03-12T12:33:35.475Z,97863.03
2023-03-12T12:36:02.707Z,97869.81
2023-03-12T12:38:36.627Z,97880.44
2023-03-12T12:41:17.973Z,97872.94
2023-03-12T12:43:49.318Z,97868.81
2023-03-12T12:46:19.912Z,97882.19
2023-03-12T12:49:14.797Z,97874.41
2023-03-12T12:51:46.143Z,97885.53
2023-03-12T12:54:20.202Z,97884.75
2023-03-12T12:56:58.822Z,97875.81
2023-03-12T12:59:50.663Z,97893.84
2023-03-12T13:02:28.754Z,97882.44
2023-03-12T13:04:58.304Z,97886.72
2023-03-12T13:07:27.603Z,97879.28
2023-03-12T13:09:58.902Z,97878.09
2023-03-12T13:12:25.332Z,97885.69
2023-03-12T13:14:54.830Z,97887.97
2023-03-12T13:17:33.004Z,97889.69
2023-03-12T13:20:11.060Z,97878.00
2023-03-12T13:23:02.169Z,97894.63
2023-03-12T13:25:55.931Z,97884.22
2023-03-12T13:28:32.743Z,97889.72
2023-03-12T13:31:01.206Z,97883.97
2023-03-12T13:33:48.730Z,97875.59
2023-03-12T13:36:15.163Z,97884.81
2023-03-12T13:38:56.912Z,97891.41
2023-03-12T13:41:32.186Z,97895.97
2023-03-12T13:43:59.388Z,97895.81
2023-03-12T13:46:39.231Z,97885.69
2023-03-12T13:49:11.352Z,97891.84
2023-03-12T13:52:07.179Z,97891.28
2023-03-12T13:54:35.636Z,97876.06
2023-03-12T13:57:12.137Z,97877.19
2023-03-12T13:59:45.164Z,97892.88
2023-03-12T14:02:31.760Z,97884.97
2023-03-12T14:05:11.043Z,97876.47
2023-03-12T14:07:54.106Z,97886.34
2023-03-12T14:10:42.001Z,97872.66
2023-03-12T14:13:11.428Z,97873.97
2023-03-12T14:15:56.683Z,97878.94
2023-03-12T14:18:26.821Z,97870.75
2023-03-12T14:20:59.040Z,97863.84
2023-03-12T14:23:30.229Z,97871.47
2023-03-12T14:26:04.181Z,97874.97
2023-03-12T14:28:34.734Z,97883.31
2023-03-12T14:31:05.481Z,97877.56
2023-03-12T14:33:58.584Z,97869.63
2023-03-12T14:36:32.070Z,97866.75
2023-03-12T14:39:10.780Z,97862.06
2023-03-12T14:41:45.752Z,97865.97
2023-03-12T14:44:26.255Z,97854.47
2023-03-12T14:47:10.073Z,97859.72
2023-03-12T14:49:46.129Z,97857.69
2023-03-12T14:52:24.691Z,97862.53
2023-03-12T14:55:07.617Z,97858.56
2023-03-12T14:57:34.844Z,97853.75
2023-03-12T15:00:01.787Z,97861.91
2023-03-12T15:02:30.906Z,97858.06
2023-03-12T15:05:00.574Z,97867.59
2023-03-12T15:07:37.558Z,97852.69
2023-03-12T15:10:17.643Z,97854.34
2023-03-12T15:12:46.066Z,97854.16
2023-03-12T15:15:36.924Z,97835.53
2023-03-12T15:18:25.672Z,97848.09
2023-03-12T15:20:57.130Z,97846.44
2023-03-12T15:23:25.640Z,97829.19
2023-03-12T15:26:29.321Z,97843.50
2023-03-12T15:29:27.905Z,97842.53
2023-03-12T15:31:57.843Z,97846.69
2023-03-12T15:34:34.918Z,97836.75
2023-03-12T15:37:21.191Z,97835.25
2023-03-12T15:39:50.946Z,97834.91
2023-03-12T15:42:21.372Z,97839.22
2023-03-12T15:44:51.970Z,97846.38
2023-03-12T15:47:21.573Z,97839.88
2023-03-12T15:49:56.896Z,97830.41
2023-03-12T15:52:28.451Z,97826.94
2023-03-12T15:55:12.781Z,97838.56
2023-03-12T15:57:46.771Z,97831.06
2023-03-12T16:00:20.021Z,97830.41
2023-03-12T16:02:59.961Z,97848.22
2023-03-12T16:05:29.916Z,97841.41
2023-03-12T16:07:57.149Z,97847.75
2023-03-12T16:10:26.997Z,97852.56
2023-03-12T16:13:01.357Z,97857.03
2023-03-12T16:15:32.540Z,97853.72
2023-03-12T16:17:59.122Z,97849.06
2023-03-12T16:20:25.957Z,97853.91
2023-03-12T16:22:52.445Z,97863.06
2023-03-12T16:25:19.265Z,97855.72
2023-03-12T16:28:00.374Z,97860.88
2023-03-12T16:30:35.787Z,97855.91
2023-03-12T16:33:08.288Z,97861.34
2023-03-12T16:35:35.516Z,97864.19
2023-03-12T16:38:02.488Z,97857.53
2023-03-12T16:40:36.828Z,97838.72
2023-03-12T16:43:06.643Z,97850.22
2023-03-12T16:45:37.133Z,97845.03
2023-03-12T16:48:06.611Z,97857.25
2023-03-12T16:50:33.135Z,97857.69
2023-03-12T16:52:59.839Z,97857.22
2023-03-12T16:55:30.286Z,97857.88
2023-03-12T16:58:01.120Z,97859.19
2023-03-12T17:00:30.285Z,97865.84
2023-03-12T17:02:58.054Z,97864.34
2023-03-12T17:05:29.732Z,97861.19
2023-03-12T17:07:57.381Z,97870.00
2023-03-12T17:10:25.755Z,97878.81
2023-03-12T17:12:53.680Z,97874.19
2023-03-12T17:15:26.306Z,97874.84
2023-03-12T17:17:53.777Z,97880.13
2023-03-12T17:20:22.272Z,97875.44
2023-03-12T17:22:48.869Z,97884.13
2023-03-12T17:25:27.066Z,97877.97
2023-03-12T17:27:53.995Z,97884.63
2023-03-12T17:30:21.962Z,97887.63
2023-03-12T17:32:50.098Z,97900.59
2023-03-12T17:35:18.010Z,97908.75
2023-03-12T17:37:44.764Z,97902.75
2023-03-12T17:40:11.810Z,97902.25
2023-03-12T17:42:38.930Z,97896.41
2023-03-12T17:45:07.518Z,97901.09
2023-03-12T17:47:34.607Z,97892.47
2023-03-12T17:50:01.135Z,97896.75
2023-03-12T17:52:27.688Z,97898.44
2023-03-12T17:54:54.321Z,97903.78
2023-03-12T17:57:20.844Z,97916.25
2023-03-12T17:59:47.318Z,97923.25
2023-03-12T18:02:16.644Z,97916.25
2023-03-12T18:04:43.248Z,97913.97
2023-03-12T18:07:09.747Z,97920.47
2023-03-12T18:09:36.206Z,97921.47
2023-03-12T18:12:03.053Z,97921.16
2023-03-12T18:14:29.473Z,97928.28
2023-03-12T18:16:55.993Z,97928.81
2023-03-12T18:19:23.714Z,97931.94
2023-03-12T18:21:50.203Z,97929.81
2023-03-12T18:24:16.692Z,97938.56
2023-03-12T18:26:43.285Z,97931.09
2023-03-12T18:29:09.792Z,97924.47
2023-03-12T18:31:36.467Z,97928.44
2023-03-12T18:34:03.335Z,97935.25
2023-03-12T18:36:29.804Z,97926.44
2023-03-12T18:38:56.360Z,97936.59
2023-03-12T18:41:28.550Z,97939.28
2023-03-12T18:43:54.965Z,97930.28
2023-03-12T18:46:23.819Z,97935.09
2023-03-12T18:48:52.304Z,97943.25
2023-03-12T18:51:19.176Z,97936.44
2023-03-12T18:53:46.206Z,97946.06
2023-03-12T18:56:13.092Z,97956.00
2023-03-12T18:58:39.667Z,97964.16
2023-03-12T19:01:06.270Z,97958.00
2023-03-12T19:03:36.164Z,97963.28
2023-03-12T19:06:05.490Z,97966.28
2023-03-12T19:08:32.504Z,97973.94
2023-03-12T19:10:59.464Z,97969.28
2023-03-12T19:13:26.376Z,97966.81
2023-03-12T19:16:00.818Z,97972.66
2023-03-12T19:18:28.167Z,97981.28
2023-03-12T19:20:55.467Z,97974.28
2023-03-12T19:23:22.472Z,97963.34
2023-03-12T19:25:49.203Z,97976.09
2023-03-12T19:28:15.664Z,97970.59
2023-03-12T19:30:42.195Z,97967.09
2023-03-12T19:33:08.885Z,97965.63
2023-03-12T19:35:39.600Z,97968.50
2023-03-12T19:38:06.451Z,97967.19
2023-03-12T19:40:34.210Z,97967.72
2023-03-12T19:43:02.094Z,97965.56
2023-03-12T19:45:28.795Z,97962.25
2023-03-12T19:47:55.313Z,97970.69
2023-03-12T19:50:22.191Z,97970.69
2023-03-12T19:52:48.726Z,97968.03
2023-03-12T19:55:15.413Z,97965.06
2023-03-12T19:57:41.915Z,97962.34
2023-03-12T20:00:10.524Z,97958.19
2023-03-12T20:02:37.778Z,97958.97
2023-03-12T20:05:05.386Z,97962.59
2023-03-12T20:07:32.187Z,97964.50
2023-03-12T20:09:58.766Z,97955.81
2023-03-12T20:12:25.385Z,97960.66
2023-03-12T20:14:52.016Z,97952.66
2023-03-12T20:17:18.489Z,97952.38
2023-03-12T20:19:45.039Z,97954.19
2023-03-12T20:22:11.603Z,97951.56
2023-03-12T20:24:38.048Z,97954.06
2023-03-12T20:27:04.625Z,97950.81
2023-03-12T20:29:31.260Z,97943.97
2023-03-12T20:31:57.831Z,97939.31
2023-03-12T20:34:24.433Z,97941.50
2023-03-12T20:36:50.849Z,97951.78
2023-03-12T20:39:17.417Z,97946.81
2023-03-12T20:41:43.881Z,97942.88
2023-03-12T20:44:10.525Z,97946.72
2023-03-12T20:46:36.960Z,97948.66
2023-03-12T20:49:03.554Z,97950.28
2023-03-12T20:51:30.776Z,97943.34
2023-03-12T20:53:57.415Z,97939.06
2023-03-12T20:56:23.922Z,97936.09
2023-03-12T20:58:50.537Z,97928.13
2023-03-12T21:01:17.115Z,97937.59
2023-03-12T21:03:43.608Z,97944.50
2023-03-12T21:06:10.014Z,97930.34
2023-03-12T21:08:36.673Z,97936.03
2023-03-12T21:11:07.535Z,97937.75
2023-03-12T21:13:34.368Z,97934.06
2023-03-12T21:16:00.805Z,97930.34
2023-03-12T21:18:28.962Z,97928.47
2023-03-12T21:21:02.494Z,97914.63
2023-03-12T21:23:29.693Z,97920.25
2023-03-12T21:26:07.148Z,97920.06
2023-03-12T21:28:35.105Z,97915.81
2023-03-12T21:31:10.784Z,97917.78
2023-03-12T21:33:37.400Z,97903.88
2023-03-12T21:36:08.808Z,97897.09
2023-03-12T21:38:36.654Z,97894.38
2023-03-12T21:41:08.590Z,97893.66
2023-03-12T21:43:35.225Z,97885.00
2023-03-12T21:46:07.298Z,97882.63
2023-03-12T21:48:34.258Z,97883.44
2023-03-12T21:51:11.304Z,97884.28
2023-03-12T21:53:38.289Z,97886.03
2023-03-12T21:56:06.464Z,97884.13
2023-03-12T21:58:34.019Z,97888.19
2023-03-12T22:01:13.351Z,97886.28
2023-03-12T22:03:41.220Z,97886.28
2023-03-12T22:06:08.517Z,97869.00
2023-03-12T22:08:35.736Z,97877.09
2023-03-12T22:11:03.776Z,97859.06
2023-03-12T22:13:30.288Z,97851.16
2023-03-12T22:16:01.803Z,97851.16
2023-03-12T22:18:29.067Z,97846.47
2023-03-12T22:21:07.458Z,97842.19
2023-03-12T22:23:37.171Z,97849.97
2023-03-12T22:26:05.878Z,97840.34
2023-03-12T22:28:33.059Z,97836.66
2023-03-12T22:31:00.951Z,97846.72
2023-03-12T22:33:28.097Z,97840.41
2023-03-12T22:35:55.319Z,97841.25
2023-03-12T22:38:22.884Z,97831.53
2023-03-12T22:40:49.839Z,97832.00
2023-03-12T22:43:16.392Z,97829.47
2023-03-12T22:45:42.999Z,97829.94
2023-03-12T22:48:09.792Z,97829.75
2023-03-12T22:50:36.264Z,97826.41
2023-03-12T22:53:02.716Z,97818.72
2023-03-12T22:55:29.278Z,97820.59
2023-03-12T22:57:55.683Z,97812.84
2023-03-12T23:00:22.980Z,97820.00
2023-03-12T23:02:50.061Z,97810.59
2023-03-12T23:05:16.820Z,97808.59
2023-03-12T23:07:43.387Z,97807.00
2023-03-12T23:10:10.244Z,97809.47
2023-03-12T23:12:36.683Z,97807.28
2023-03-12T23:15:03.229Z,97812.78
2023-03-12T23:17:29.617Z,97792.53
2023-03-12T23:19:56.003Z,97798.97
2023-03-12T23:22:22.447Z,97797.97
2023-03-12T23:24:49.687Z,97793.44
2023-03-12T23:27:16.282Z,97784.19
2023-03-12T23:29:42.696Z,97797.38
2023-03-12T23:32:09.213Z,97794.47
2023-03-12T23:34:35.683Z,97784.66
2023-03-12T23:37:02.324Z,97793.00
2023-03-12T23:39:30.661Z,97787.88
2023-03-12T23:41:57.728Z,97783.56
2023-03-12T23:44:24.448Z,97775.56
2023-03-12T23:46:51.023Z,97769.28
2023-03-12T23:49:17.539Z,97761.50
2023-03-12T23:51:43.999Z,97764.81
2023-03-12T23:54:10.550Z,97757.34
2023-03-12T23:56:39.122Z,97754.00
2023-03-12T23:59:07.942Z,97745.38
